createdAt,value
2018-09-15T00:00:02.631Z,93.19
2018-09-15T00:01:02.618Z,94.42
2018-09-15T00:02:02.614Z,93.80
2018-09-15T00:03:02.600Z,93.86
2018-09-15T00:04:02.584Z,93.80
2018-09-15T00:05:02.592Z,93.29
2018-09-15T00:06:02.572Z,93.80
2018-09-15T00:07:02.560Z,93.95
2018-09-15T00:08:02.544Z,94.26
2018-09-15T00:09:02.531Z,94.98
2018-09-15T00:10:02.535Z,96.00
2018-09-15T00:11:02.512Z,96.00
2018-09-15T00:12:02.499Z,96.41
2018-09-15T00:13:02.489Z,97.13
2018-09-15T00:14:02.481Z,97.44
2018-09-15T00:15:02.490Z,96.82
2018-09-15T00:16:02.460Z,96.51
2018-09-15T00:17:02.447Z,97.13
2018-09-15T00:18:02.431Z,97.44
2018-09-15T00:19:02.429Z,97.33
2018-09-15T00:20:02.432Z,97.03
2018-09-15T00:21:02.400Z,97.44
2018-09-15T00:22:02.405Z,96.78
2018-09-15T00:23:02.470Z,97.39
2018-09-15T00:24:02.368Z,97.29
2018-09-15T00:25:02.360Z,96.78
2018-09-15T00:26:02.370Z,96.67
2018-09-15T00:27:02.341Z,96.37
2018-09-15T00:28:02.328Z,96.16
2018-09-15T00:29:02.314Z,95.54
2018-09-15T00:30:02.302Z,95.65
2018-09-15T00:31:02.316Z,95.86
2018-09-15T00:32:02.287Z,94.99
2018-09-15T00:33:02.273Z,95.24
2018-09-15T00:34:02.266Z,95.14
2018-09-15T00:35:02.248Z,94.52
2018-09-15T00:36:02.263Z,93.49
2018-09-15T00:37:02.249Z,94.27
2018-09-15T00:38:02.221Z,95.14
2018-09-15T00:39:02.338Z,95.03
2018-09-15T00:40:02.197Z,95.03
2018-09-15T00:41:02.185Z,95.44
2018-09-15T00:42:02.198Z,95.24
2018-09-15T00:43:02.161Z,94.11
2018-09-15T00:44:02.156Z,93.95
2018-09-15T00:45:02.145Z,95.49
2018-09-15T00:46:02.141Z,95.28
2018-09-15T00:47:02.125Z,95.07
2018-09-15T00:48:02.134Z,95.49
2018-09-15T00:49:02.098Z,96.15
2018-09-15T00:50:02.086Z,96.10
2018-09-15T00:51:02.082Z,96.45
2018-09-15T00:52:02.068Z,96.56
2018-09-15T00:53:02.075Z,96.56
2018-09-15T00:54:02.042Z,97.28
2018-09-15T00:55:02.033Z,97.28
2018-09-15T00:56:02.023Z,96.97
2018-09-15T00:57:02.031Z,96.15
2018-09-15T00:58:02.008Z,96.56
2018-09-15T00:59:01.996Z,97.12
2018-09-15T01:00:01.984Z,97.79
2018-09-15T01:01:01.969Z,97.38
2018-09-15T01:02:01.973Z,97.32
2018-09-15T01:03:01.945Z,96.81
2018-09-15T01:04:01.954Z,96.60
2018-09-15T01:05:01.928Z,97.02
2018-09-15T01:06:01.921Z,96.70
2018-09-15T01:07:01.905Z,97.73
2018-09-15T01:08:01.893Z,97.42
2018-09-15T01:09:01.903Z,97.32
2018-09-15T01:10:01.876Z,97.32
2018-09-15T01:11:01.865Z,97.58
2018-09-15T01:12:01.856Z,97.58
2018-09-15T01:13:01.838Z,97.48
2018-09-15T01:14:01.932Z,97.23
2018-09-15T01:15:01.815Z,96.41
2018-09-15T01:16:01.809Z,96.31
2018-09-15T01:17:01.816Z,97.13
2018-09-15T01:18:01.790Z,96.41
2018-09-15T01:19:01.810Z,96.31
2018-09-15T01:20:01.840Z,96.16
2018-09-15T01:21:01.759Z,96.37
2018-09-15T01:22:01.740Z,95.95
2018-09-15T01:23:01.737Z,94.17
2018-09-15T01:24:01.743Z,93.10
2018-09-15T01:25:01.727Z,93.10
2018-09-15T01:26:01.814Z,92.65
2018-09-15T01:27:01.712Z,92.65
2018-09-15T01:28:01.680Z,92.03
2018-09-15T01:29:01.672Z,92.19
2018-09-15T01:30:01.663Z,90.36
2018-09-15T01:31:01.647Z,89.80
2018-09-15T01:32:01.638Z,89.50
2018-09-15T01:33:01.646Z,90.21
2018-09-15T01:34:01.613Z,89.65
2018-09-15T01:35:01.609Z,89.35
2018-09-15T01:36:01.589Z,89.56
2018-09-15T01:37:01.584Z,87.92
2018-09-15T01:38:01.573Z,87.92
2018-09-15T01:39:01.577Z,87.57
2018-09-15T01:40:01.563Z,87.77
2018-09-15T01:41:01.539Z,87.16
2018-09-15T01:42:01.541Z,86.44
2018-09-15T01:43:01.523Z,86.51
2018-09-15T01:44:01.504Z,85.89
2018-09-15T01:45:01.515Z,85.35
2018-09-15T01:46:01.487Z,84.22
2018-09-15T01:47:01.477Z,83.37
2018-09-15T01:48:01.463Z,83.37
2018-09-15T01:49:01.453Z,83.67
2018-09-15T01:50:01.457Z,83.26
2018-09-15T01:51:01.444Z,83.67
2018-09-15T01:52:01.436Z,84.28
2018-09-15T01:53:01.409Z,83.06
2018-09-15T01:54:01.401Z,83.16
2018-09-15T01:55:01.384Z,83.78
2018-09-15T01:56:01.377Z,83.02
2018-09-15T01:57:01.383Z,83.43
2018-09-15T01:58:01.357Z,83.23
2018-09-15T01:59:01.347Z,81.90
2018-09-15T02:00:01.352Z,82.21
2018-09-15T02:01:01.321Z,81.15
2018-09-15T02:02:01.313Z,82.27
2018-09-15T02:03:01.297Z,81.04
2018-09-15T02:04:01.288Z,80.74
2018-09-15T02:05:01.305Z,81.04
2018-09-15T02:06:01.272Z,81.15
2018-09-15T02:07:01.262Z,80.54
2018-09-15T02:08:01.248Z,82.57
2018-09-15T02:09:01.234Z,81.15
2018-09-15T02:10:01.222Z,81.29
2018-09-15T02:11:01.236Z,82.51
2018-09-15T02:12:01.207Z,83.02
2018-09-15T02:13:01.191Z,82.45
2018-09-15T02:14:01.179Z,82.96
2018-09-15T02:15:01.168Z,82.86
2018-09-15T02:16:01.183Z,82.75
2018-09-15T02:17:01.155Z,83.37
2018-09-15T02:18:01.143Z,83.26
2018-09-15T02:19:01.136Z,83.10
2018-09-15T02:20:01.118Z,83.40
2018-09-15T02:21:01.122Z,83.61
2018-09-15T02:22:01.123Z,84.12
2018-09-15T02:23:01.094Z,84.16
2018-09-15T02:24:01.073Z,84.94
2018-09-15T02:25:01.065Z,84.26
2018-09-15T02:26:01.059Z,84.53
2018-09-15T02:27:01.041Z,85.65
2018-09-15T02:28:01.048Z,84.22
2018-09-15T02:29:01.065Z,84.94
2018-09-15T02:30:01.014Z,84.26
2018-09-15T02:31:01.003Z,83.81
2018-09-15T02:32:01.011Z,83.51
2018-09-15T02:33:00.979Z,84.57
2018-09-15T02:34:00.964Z,84.22
2018-09-15T02:35:00.956Z,84.83
2018-09-15T02:36:00.944Z,84.26
2018-09-15T02:37:00.960Z,84.98
2018-09-15T02:38:00.928Z,83.81
2018-09-15T02:39:00.916Z,83.92
2018-09-15T02:40:00.903Z,84.22
2018-09-15T02:41:00.889Z,83.71
2018-09-15T02:42:00.877Z,83.92
2018-09-15T02:43:00.894Z,84.33
2018-09-15T02:44:00.862Z,84.22
2018-09-15T02:45:00.845Z,84.01
2018-09-15T02:46:00.834Z,84.12
2018-09-15T02:47:00.823Z,84.22
2018-09-15T02:48:00.834Z,84.12
2018-09-15T02:49:00.805Z,83.92
2018-09-15T02:50:00.803Z,84.33
2018-09-15T02:51:00.785Z,83.81
2018-09-15T02:52:00.773Z,85.14
2018-09-15T02:53:00.777Z,84.83
2018-09-15T02:54:00.750Z,84.42
2018-09-15T02:55:00.736Z,84.33
2018-09-15T02:56:00.728Z,84.42
2018-09-15T02:57:00.719Z,84.83
2018-09-15T02:58:00.735Z,84.77
2018-09-15T02:59:00.693Z,85.69
2018-09-15T03:00:00.684Z,85.69
2018-09-15T03:01:00.677Z,85.49
2018-09-15T03:02:00.668Z,85.18
2018-09-15T03:03:00.661Z,85.28
2018-09-15T03:04:00.668Z,86.00
2018-09-15T03:05:00.629Z,85.79
2018-09-15T03:06:00.620Z,85.89
2018-09-15T03:07:00.615Z,86.30
2018-09-15T03:08:00.599Z,85.69
2018-09-15T03:09:00.590Z,85.49
2018-09-15T03:10:00.599Z,85.49
2018-09-15T03:11:00.570Z,86.00
2018-09-15T03:12:00.558Z,85.89
2018-09-15T03:13:00.546Z,86.00
2018-09-15T03:14:00.531Z,85.55
2018-09-15T03:15:00.545Z,85.69
2018-09-15T03:16:00.516Z,85.59
2018-09-15T03:17:00.519Z,85.89
2018-09-15T03:18:00.488Z,86.71
2018-09-15T03:19:00.476Z,86.30
2018-09-15T03:20:00.468Z,86.36
2018-09-15T03:21:00.459Z,86.67
2018-09-15T03:22:00.469Z,86.16
2018-09-15T03:23:00.445Z,85.75
2018-09-15T03:24:00.429Z,86.57
2018-09-15T03:25:00.436Z,85.86
2018-09-15T03:26:00.401Z,85.55
2018-09-15T03:27:00.392Z,85.86
2018-09-15T03:28:00.389Z,85.10
2018-09-15T03:29:00.375Z,86.12
2018-09-15T03:30:00.390Z,85.51
2018-09-15T03:31:00.349Z,85.41
2018-09-15T03:32:00.368Z,85.00
2018-09-15T03:33:00.330Z,85.10
2018-09-15T03:34:00.325Z,85.10
2018-09-15T03:35:00.312Z,85.30
2018-09-15T03:36:00.327Z,85.30
2018-09-15T03:37:00.288Z,85.00
2018-09-15T03:38:00.272Z,85.61
2018-09-15T03:39:00.262Z,85.30
2018-09-15T03:40:00.255Z,85.21
2018-09-15T03:41:00.247Z,85.71
2018-09-15T03:42:00.335Z,84.49
2018-09-15T03:43:00.226Z,85.51
2018-09-15T03:44:00.212Z,85.51
2018-09-15T03:45:00.200Z,85.10
2018-09-15T03:46:00.187Z,85.10
2018-09-15T03:47:00.201Z,85.30
2018-09-15T03:48:00.178Z,85.21
2018-09-15T03:49:00.157Z,85.51
2018-09-15T03:50:00.161Z,85.92
2018-09-15T03:51:00.140Z,86.12
2018-09-15T03:52:00.143Z,86.36
2018-09-15T03:53:00.116Z,86.36
2018-09-15T03:54:00.107Z,86.57
2018-09-15T03:55:00.097Z,86.77
2018-09-15T03:56:00.084Z,87.29
2018-09-15T03:57:00.089Z,87.59
2018-09-15T03:58:00.059Z,87.70
2018-09-15T03:59:00.047Z,87.49
2018-09-15T04:00:00.108Z,87.49
2018-09-15T04:01:00.031Z,87.59
2018-09-15T04:02:00.051Z,87.38
2018-09-15T04:03:00.004Z,87.59
2018-09-15T04:03:59.997Z,87.90
2018-09-15T04:04:59.987Z,88.00
2018-09-15T04:05:59.978Z,88.31
2018-09-15T04:06:59.985Z,88.20
2018-09-15T04:07:59.955Z,88.00
2018-09-15T04:08:59.943Z,87.70
2018-09-15T04:09:59.929Z,87.49
2018-09-15T04:10:59.918Z,87.38
2018-09-15T04:11:59.928Z,87.45
2018-09-15T04:12:59.907Z,87.49
2018-09-15T04:13:59.898Z,87.29
2018-09-15T04:14:59.882Z,87.59
2018-09-15T04:15:59.868Z,87.49
2018-09-15T04:16:59.881Z,87.49
2018-09-15T04:17:59.842Z,87.49
2018-09-15T04:18:59.847Z,87.49
2018-09-15T04:19:59.825Z,87.59
2018-09-15T04:20:59.811Z,88.00
2018-09-15T04:21:59.806Z,87.18
2018-09-15T04:22:59.811Z,87.79
2018-09-15T04:23:59.779Z,88.00
2018-09-15T04:24:59.771Z,87.49
2018-09-15T04:25:59.763Z,88.00
2018-09-15T04:26:59.768Z,88.00
2018-09-15T04:27:59.740Z,88.00
2018-09-15T04:28:59.725Z,87.90
2018-09-15T04:29:59.712Z,88.71
2018-09-15T04:30:59.701Z,88.00
2018-09-15T04:31:59.711Z,87.84
2018-09-15T04:32:59.684Z,88.51
2018-09-15T04:33:59.700Z,87.70
2018-09-15T04:34:59.660Z,88.00
2018-09-15T04:35:59.651Z,87.90
2018-09-15T04:36:59.658Z,88.20
2018-09-15T04:37:59.632Z,88.10
2018-09-15T04:38:59.621Z,88.71
2018-09-15T04:39:59.609Z,89.12
2018-09-15T04:40:59.597Z,89.32
2018-09-15T04:41:59.602Z,89.02
2018-09-15T04:42:59.571Z,89.02
2018-09-15T04:43:59.565Z,89.23
2018-09-15T04:44:59.554Z,89.73
2018-09-15T04:45:59.553Z,89.58
2018-09-15T04:46:59.556Z,88.92
2018-09-15T04:47:59.521Z,89.32
2018-09-15T04:48:59.513Z,88.96
2018-09-15T04:49:59.513Z,89.32
2018-09-15T04:50:59.493Z,89.23
2018-09-15T04:51:59.479Z,89.23
2018-09-15T04:52:59.476Z,89.37
2018-09-15T04:53:59.481Z,89.67
2018-09-15T04:54:59.459Z,89.73
2018-09-15T04:55:59.444Z,89.58
2018-09-15T04:56:59.462Z,89.43
2018-09-15T04:57:59.417Z,89.73
2018-09-15T04:58:59.406Z,89.32
2018-09-15T04:59:59.397Z,89.63
2018-09-15T05:00:59.379Z,89.73
2018-09-15T05:01:59.384Z,89.53
2018-09-15T05:02:59.361Z,89.58
2018-09-15T05:03:59.352Z,89.47
2018-09-15T05:04:59.339Z,89.23
2018-09-15T05:05:59.350Z,89.63
2018-09-15T05:06:59.314Z,89.47
2018-09-15T05:07:59.308Z,89.32
2018-09-15T05:08:59.296Z,89.43
2018-09-15T05:09:59.287Z,89.32
2018-09-15T05:10:59.306Z,89.06
2018-09-15T05:11:59.266Z,89.53
2018-09-15T05:12:59.291Z,89.43
2018-09-15T05:13:59.244Z,89.32
2018-09-15T05:14:59.244Z,89.88
2018-09-15T05:15:59.217Z,89.84
2018-09-15T05:16:59.231Z,89.26
2018-09-15T05:17:59.198Z,89.98
2018-09-15T05:18:59.193Z,89.88
2018-09-15T05:19:59.180Z,89.78
2018-09-15T05:20:59.186Z,90.29
2018-09-15T05:21:59.152Z,90.19
2018-09-15T05:22:59.147Z,90.80
2018-09-15T05:23:59.134Z,90.49
2018-09-15T05:24:59.125Z,89.67
2018-09-15T05:25:59.107Z,89.88
2018-09-15T05:26:59.114Z,90.08
2018-09-15T05:27:59.088Z,90.04
2018-09-15T05:28:59.081Z,90.25
2018-09-15T05:29:59.073Z,90.19
2018-09-15T05:30:59.062Z,90.04
2018-09-15T05:31:59.075Z,90.04
2018-09-15T05:32:59.038Z,90.25
2018-09-15T05:33:59.022Z,90.08
2018-09-15T05:34:59.012Z,90.39
2018-09-15T05:35:59.011Z,90.59
2018-09-15T05:36:59.117Z,91.20
2018-09-15T05:37:59.015Z,90.80
2018-09-15T05:38:58.980Z,90.39
2018-09-15T05:39:59.017Z,90.70
2018-09-15T05:40:58.950Z,90.08
2018-09-15T05:41:58.978Z,91.41
2018-09-15T05:42:58.958Z,91.31
2018-09-15T05:43:58.920Z,90.80
2018-09-15T05:44:58.905Z,91.72
2018-09-15T05:45:58.892Z,91.52
2018-09-15T05:46:58.901Z,91.61
2018-09-15T05:47:58.881Z,90.75
2018-09-15T05:48:58.864Z,90.45
2018-09-15T05:49:58.856Z,90.25
2018-09-15T05:50:58.846Z,90.25
2018-09-15T05:51:58.849Z,89.53
2018-09-15T05:52:58.841Z,89.84
2018-09-15T05:53:58.959Z,90.20
2018-09-15T05:54:58.808Z,89.84
2018-09-15T05:55:58.843Z,89.90
2018-09-15T05:56:58.818Z,90.41
2018-09-15T05:57:58.833Z,90.00
2018-09-15T05:58:58.752Z,89.79
2018-09-15T05:59:58.743Z,90.16
2018-09-15T06:00:58.736Z,90.00
2018-09-15T06:01:58.741Z,89.55
2018-09-15T06:02:58.747Z,89.86
2018-09-15T06:03:58.707Z,89.96
2018-09-15T06:04:58.690Z,90.16
2018-09-15T06:05:58.677Z,89.34
2018-09-15T06:06:58.666Z,89.75
2018-09-15T06:07:58.685Z,89.65
2018-09-15T06:08:58.650Z,89.34
2018-09-15T06:09:58.640Z,89.75
2018-09-15T06:10:58.626Z,89.34
2018-09-15T06:11:58.614Z,89.34
2018-09-15T06:12:58.606Z,89.45
2018-09-15T06:13:58.616Z,90.16
2018-09-15T06:14:58.588Z,89.96
2018-09-15T06:15:58.574Z,89.45
2018-09-15T06:16:58.563Z,89.96
2018-09-15T06:17:58.571Z,90.36
2018-09-15T06:18:58.602Z,90.06
2018-09-15T06:19:58.533Z,90.16
2018-09-15T06:20:58.541Z,89.86
2018-09-15T06:21:58.536Z,90.47
2018-09-15T06:22:58.501Z,89.65
2018-09-15T06:23:58.506Z,89.96
2018-09-15T06:24:58.479Z,89.00
2018-09-15T06:25:58.467Z,89.30
2018-09-15T06:26:58.475Z,88.79
2018-09-15T06:27:58.471Z,87.67
2018-09-15T06:28:58.453Z,88.65
2018-09-15T06:29:58.419Z,88.59
2018-09-15T06:30:58.463Z,88.39
2018-09-15T06:31:58.401Z,88.59
2018-09-15T06:32:58.392Z,89.06
2018-09-15T06:33:58.402Z,88.69
2018-09-15T06:34:58.377Z,87.94
2018-09-15T06:35:58.360Z,87.43
2018-09-15T06:36:58.347Z,87.12
2018-09-15T06:37:58.386Z,87.29
2018-09-15T06:38:58.337Z,87.29
2018-09-15T06:39:58.319Z,86.98
2018-09-15T06:40:58.306Z,86.98
2018-09-15T06:41:58.297Z,86.37
2018-09-15T06:42:58.306Z,86.68
2018-09-15T06:43:58.296Z,86.47
2018-09-15T06:44:58.263Z,86.27
2018-09-15T06:45:58.255Z,86.43
2018-09-15T06:46:58.244Z,86.02
2018-09-15T06:47:58.247Z,86.02
2018-09-15T06:48:58.216Z,86.13
2018-09-15T06:49:58.206Z,86.43
2018-09-15T06:50:58.197Z,86.02
2018-09-15T06:51:58.187Z,86.22
2018-09-15T06:52:58.193Z,86.53
2018-09-15T06:53:58.174Z,86.53
2018-09-15T06:54:58.157Z,86.29
2018-09-15T06:55:58.163Z,85.47
2018-09-15T06:56:58.131Z,85.17
2018-09-15T06:57:58.118Z,85.43
2018-09-15T06:58:58.116Z,84.86
2018-09-15T06:59:58.117Z,84.92
2018-09-15T07:00:58.121Z,85.13
2018-09-15T07:01:58.072Z,85.29
2018-09-15T07:02:58.081Z,84.38
2018-09-15T07:03:58.053Z,83.87
2018-09-15T07:04:58.046Z,84.38
2018-09-15T07:05:58.035Z,83.62
2018-09-15T07:06:58.073Z,83.12
2018-09-15T07:07:58.037Z,83.62
2018-09-15T07:08:57.998Z,83.01
2018-09-15T07:09:57.986Z,82.40
2018-09-15T07:10:57.977Z,82.61
2018-09-15T07:11:57.966Z,83.62
2018-09-15T07:12:58.040Z,82.92
2018-09-15T07:13:57.952Z,84.03
2018-09-15T07:14:57.946Z,83.32
2018-09-15T07:15:57.935Z,83.73
2018-09-15T07:16:57.923Z,82.81
2018-09-15T07:17:57.959Z,82.92
2018-09-15T07:18:57.893Z,82.67
2018-09-15T07:19:57.911Z,82.81
2018-09-15T07:20:57.898Z,82.78
2018-09-15T07:21:57.854Z,83.42
2018-09-15T07:22:57.844Z,83.69
2018-09-15T07:23:57.853Z,82.98
2018-09-15T07:24:57.826Z,83.99
2018-09-15T07:25:57.869Z,82.17
2018-09-15T07:26:57.812Z,83.08
2018-09-15T07:27:57.811Z,81.86
2018-09-15T07:28:57.804Z,82.87
2018-09-15T07:29:57.767Z,83.69
2018-09-15T07:30:57.766Z,82.78
2018-09-15T07:31:57.811Z,82.78
2018-09-15T07:32:57.760Z,82.67
2018-09-15T07:33:57.724Z,82.64
2018-09-15T07:34:57.713Z,82.53
2018-09-15T07:35:57.707Z,81.92
2018-09-15T07:36:57.697Z,82.12
2018-09-15T07:37:57.704Z,82.43
2018-09-15T07:38:57.677Z,81.92
2018-09-15T07:39:57.668Z,81.68
2018-09-15T07:40:57.663Z,81.99
2018-09-15T07:41:57.684Z,80.87
2018-09-15T07:42:57.644Z,81.99
2018-09-15T07:43:57.624Z,81.78
2018-09-15T07:44:57.612Z,80.97
2018-09-15T07:45:57.601Z,81.38
2018-09-15T07:46:57.585Z,80.77
2018-09-15T07:47:57.594Z,82.59
2018-09-15T07:48:57.570Z,81.44
2018-09-15T07:49:57.566Z,82.05
2018-09-15T07:50:57.547Z,80.83
2018-09-15T07:51:57.536Z,81.71
2018-09-15T07:52:57.545Z,81.54
2018-09-15T07:53:57.509Z,79.98
2018-09-15T07:54:57.497Z,80.79
2018-09-15T07:55:57.489Z,80.69
2018-09-15T07:56:57.481Z,80.99
2018-09-15T07:57:57.708Z,80.79
2018-09-15T07:58:57.478Z,80.05
2018-09-15T07:59:57.465Z,79.94
2018-09-15T08:00:57.465Z,79.94
2018-09-15T08:01:57.496Z,79.64
2018-09-15T08:02:57.472Z,80.65
2018-09-15T08:03:57.410Z,79.03
2018-09-15T08:04:57.393Z,79.94
2018-09-15T08:05:57.378Z,80.76
2018-09-15T08:06:57.421Z,79.40
2018-09-15T08:07:57.360Z,79.91
2018-09-15T08:08:57.497Z,78.89
2018-09-15T08:09:57.345Z,79.30
2018-09-15T08:10:57.392Z,80.11
2018-09-15T08:11:57.320Z,80.07
2018-09-15T08:12:57.304Z,78.96
2018-09-15T08:13:57.309Z,78.25
2018-09-15T08:14:57.281Z,77.54
2018-09-15T08:15:57.274Z,77.81
2018-09-15T08:16:57.276Z,77.30
2018-09-15T08:17:57.337Z,77.40
2018-09-15T08:18:57.256Z,77.20
2018-09-15T08:19:57.838Z,78.52
2018-09-15T08:20:57.220Z,78.72
2018-09-15T08:21:57.223Z,77.30
2018-09-15T08:22:57.226Z,76.70
2018-09-15T08:23:57.217Z,78.58
2018-09-15T08:24:57.200Z,78.08
2018-09-15T08:25:57.184Z,75.75
2018-09-15T08:26:57.150Z,77.64
2018-09-15T08:27:57.162Z,77.13
2018-09-15T08:28:57.132Z,76.28
2018-09-15T08:29:57.144Z,75.88
2018-09-15T08:30:57.113Z,74.84
2018-09-15T08:31:57.126Z,73.72
2018-09-15T08:32:57.094Z,73.69
2018-09-15T08:33:57.075Z,72.81
2018-09-15T08:34:57.089Z,72.75
2018-09-15T08:35:57.063Z,75.54
2018-09-15T08:36:57.046Z,74.73
2018-09-15T08:37:57.050Z,73.72
2018-09-15T08:38:57.019Z,73.52
2018-09-15T08:39:57.031Z,73.86
2018-09-15T08:40:57.008Z,74.37
2018-09-15T08:41:57.006Z,74.26
2018-09-15T08:42:57.337Z,74.16
2018-09-15T08:43:56.987Z,75.57
2018-09-15T08:44:57.001Z,74.87
2018-09-15T08:45:56.946Z,74.87
2018-09-15T08:46:56.935Z,74.33
2018-09-15T08:47:56.938Z,75.14
2018-09-15T08:48:57.030Z,76.86
2018-09-15T08:49:56.909Z,77.13
2018-09-15T08:50:56.893Z,77.73
2018-09-15T08:51:56.882Z,75.57
2018-09-15T08:52:56.892Z,75.24
2018-09-15T08:53:56.866Z,75.34
2018-09-15T08:54:56.855Z,73.49
2018-09-15T08:55:56.849Z,75.00
2018-09-15T08:56:56.831Z,73.42
2018-09-15T08:57:56.834Z,72.58
2018-09-15T08:58:56.816Z,71.94
2018-09-15T08:59:56.797Z,74.08
2018-09-15T09:00:56.788Z,67.94
2018-09-15T09:01:56.800Z,68.21
2018-09-15T09:02:56.771Z,68.21
2018-09-15T09:03:56.767Z,67.24
2018-09-15T09:04:56.785Z,67.64
2018-09-15T09:05:56.771Z,69.02
2018-09-15T09:06:56.725Z,66.74
2018-09-15T09:07:56.759Z,67.84
2018-09-15T09:08:56.700Z,68.44
2018-09-15T09:09:56.689Z,69.65
2018-09-15T09:10:56.701Z,68.35
2018-09-15T09:11:56.668Z,69.12
2018-09-15T09:12:56.658Z,68.01
2018-09-15T09:13:56.651Z,68.28
2018-09-15T09:14:56.641Z,68.68
2018-09-15T09:15:56.626Z,69.62
2018-09-15T09:16:56.630Z,68.51
2018-09-15T09:17:56.606Z,69.35
2018-09-15T09:18:56.591Z,70.49
2018-09-15T09:19:56.648Z,70.06
2018-09-15T09:20:56.572Z,69.85
2018-09-15T09:21:56.574Z,68.44
2018-09-15T09:22:57.069Z,69.82
2018-09-15T09:23:56.538Z,69.55
2018-09-15T09:24:56.530Z,69.25
2018-09-15T09:25:56.564Z,69.05
2018-09-15T09:26:56.550Z,68.44
2018-09-15T09:27:56.497Z,68.85
2018-09-15T09:28:56.487Z,69.65
2018-09-15T09:29:56.472Z,69.95
2018-09-15T09:30:56.461Z,70.09
2018-09-15T09:31:56.471Z,71.44
2018-09-15T09:32:56.450Z,71.17
2018-09-15T09:33:56.436Z,72.98
2018-09-15T09:34:56.454Z,72.07
2018-09-15T09:35:56.418Z,71.87
2018-09-15T09:36:56.419Z,71.97
2018-09-15T09:37:56.386Z,72.58
2018-09-15T09:38:56.384Z,72.68
2018-09-15T09:39:56.370Z,72.85
2018-09-15T09:40:56.358Z,72.95
2018-09-15T09:41:56.364Z,72.95
2018-09-15T09:42:56.331Z,72.44
2018-09-15T09:43:56.323Z,73.35
2018-09-15T09:44:56.553Z,72.51
2018-09-15T09:45:56.561Z,71.84
2018-09-15T09:46:56.802Z,71.94
2018-09-15T09:47:56.638Z,72.75
2018-09-15T09:48:56.270Z,72.64
2018-09-15T09:49:56.398Z,72.88
2018-09-15T09:50:56.961Z,73.49
2018-09-15T09:51:56.273Z,73.58
2018-09-15T09:52:56.269Z,73.69
2018-09-15T09:53:57.628Z,73.89
2018-09-15T09:54:56.316Z,73.69
2018-09-15T09:55:56.206Z,73.79
2018-09-15T09:56:56.241Z,73.99
2018-09-15T09:57:56.194Z,74.56
2018-09-15T09:58:56.166Z,73.15
2018-09-15T09:59:56.156Z,73.32
2018-09-15T10:00:56.140Z,72.61
2018-09-15T10:01:56.127Z,71.37
2018-09-15T10:02:56.137Z,73.72
2018-09-15T10:03:56.106Z,72.24
2018-09-15T10:04:56.108Z,68.48
2018-09-15T10:05:56.089Z,68.25
2018-09-15T10:06:56.131Z,68.02
2018-09-15T10:07:56.120Z,68.21
2018-09-15T10:08:56.095Z,67.61
2018-09-15T10:09:56.289Z,67.24
2018-09-15T10:10:56.071Z,67.94
2018-09-15T10:11:56.025Z,68.88
2018-09-15T10:12:56.027Z,68.18
2018-09-15T10:13:56.022Z,68.18
2018-09-15T10:14:55.992Z,69.69
2018-09-15T10:15:55.985Z,68.08
2018-09-15T10:16:55.972Z,68.18
2018-09-15T10:17:55.994Z,69.49
2018-09-15T10:18:55.954Z,68.28
2018-09-15T10:19:55.941Z,67.18
2018-09-15T10:20:55.922Z,67.88
2018-09-15T10:21:55.941Z,68.98
2018-09-15T10:22:55.983Z,69.09
2018-09-15T10:23:56.004Z,68.38
2018-09-15T10:24:56.149Z,68.48
2018-09-15T10:25:55.874Z,70.39
2018-09-15T10:26:55.995Z,67.78
2018-09-15T10:27:55.900Z,68.25
2018-09-15T10:28:56.381Z,68.35
2018-09-15T10:29:55.843Z,68.15
2018-09-15T10:30:55.822Z,67.88
2018-09-15T10:31:55.818Z,68.38
2018-09-15T10:32:55.812Z,67.68
2018-09-15T10:33:55.853Z,68.98
2018-09-15T10:34:55.781Z,68.28
2018-09-15T10:35:55.766Z,68.08
2018-09-15T10:36:55.757Z,68.62
2018-09-15T10:37:55.764Z,70.19
2018-09-15T10:38:55.762Z,68.28
2018-09-15T10:39:55.733Z,68.38
2018-09-15T10:40:55.707Z,68.75
2018-09-15T10:41:55.714Z,68.21
2018-09-15T10:42:55.690Z,68.02
2018-09-15T10:43:55.682Z,66.17
2018-09-15T10:44:55.690Z,67.08
2018-09-15T10:45:55.725Z,67.18
2018-09-15T10:46:55.646Z,67.58
2018-09-15T10:47:55.634Z,68.65
2018-09-15T10:48:55.637Z,64.28
2018-09-15T10:49:55.616Z,62.84
2018-09-15T10:50:55.646Z,62.34
2018-09-15T10:51:55.596Z,63.34
2018-09-15T10:52:55.598Z,64.04
2018-09-15T10:53:55.572Z,62.84
2018-09-15T10:54:55.606Z,62.57
2018-09-15T10:55:55.787Z,64.71
2018-09-15T10:56:55.753Z,63.33
2018-09-15T10:57:55.948Z,66.64
2018-09-15T10:58:55.722Z,67.25
2018-09-15T10:59:55.532Z,65.24
2018-09-15T11:00:55.534Z,62.36
2018-09-15T11:01:55.748Z,67.01
2018-09-15T11:02:55.546Z,67.91
2018-09-15T11:03:55.487Z,67.82
2018-09-15T11:04:55.536Z,64.70
2018-09-15T11:05:55.528Z,64.76
2018-09-15T11:06:55.459Z,67.34
2018-09-15T11:07:55.535Z,68.38
2018-09-15T11:08:55.528Z,68.01
2018-09-15T11:09:55.581Z,69.79
2018-09-15T11:10:58.003Z,68.15
2018-09-15T11:11:55.434Z,70.83
2018-09-15T11:12:55.537Z,68.82
2018-09-15T11:13:55.641Z,69.35
2018-09-15T11:14:55.385Z,68.75
2018-09-15T11:15:55.512Z,67.21
2018-09-15T11:16:56.005Z,66.67
2018-09-15T11:17:55.372Z,65.57
2018-09-15T11:18:55.391Z,67.75
2018-09-15T11:19:55.303Z,66.55
2018-09-15T11:20:55.400Z,67.42
2018-09-15T11:21:55.293Z,61.60
2018-09-15T11:22:55.374Z,62.53
2018-09-15T11:23:55.389Z,64.47
2018-09-15T11:24:55.484Z,64.63
2018-09-15T11:25:55.257Z,65.73
2018-09-15T11:26:55.344Z,66.77
2018-09-15T11:27:55.282Z,66.50
2018-09-15T11:28:55.206Z,67.81
2018-09-15T11:29:55.190Z,67.94
2018-09-15T11:30:55.195Z,66.47
2018-09-15T11:31:55.202Z,67.71
2018-09-15T11:32:55.165Z,68.51
2018-09-15T11:33:55.201Z,69.21
2018-09-15T11:34:55.476Z,68.54
2018-09-15T11:35:55.243Z,67.97
2018-09-15T11:36:55.130Z,68.14
2018-09-15T11:37:55.113Z,68.57
2018-09-15T11:38:55.180Z,69.08
2018-09-15T11:39:55.165Z,71.40
2018-09-15T11:40:55.096Z,70.89
2018-09-15T11:41:55.058Z,71.94
2018-09-15T11:42:55.088Z,70.53
2018-09-15T11:43:55.097Z,71.94
2018-09-15T11:44:55.032Z,71.53
2018-09-15T11:45:55.038Z,71.30
2018-09-15T11:46:55.010Z,71.50
2018-09-15T11:47:55.105Z,71.40
2018-09-15T11:48:54.981Z,70.76
2018-09-15T11:49:54.970Z,68.95
2018-09-15T11:50:54.960Z,68.34
2018-09-15T11:51:54.946Z,68.11
2018-09-15T11:52:54.995Z,68.21
2018-09-15T11:53:54.976Z,67.40
2018-09-15T11:54:54.919Z,67.20
2018-09-15T11:55:56.058Z,67.71
2018-09-15T11:56:54.894Z,68.18
2018-09-15T11:57:54.891Z,67.37
2018-09-15T11:58:54.891Z,64.32
2018-09-15T11:59:54.922Z,63.92
2018-09-15T12:00:54.858Z,64.72
2018-09-15T12:01:54.938Z,65.62
2018-09-15T12:02:54.851Z,65.33
2018-09-15T12:03:54.842Z,63.89
2018-09-15T12:04:54.820Z,63.56
2018-09-15T12:05:54.803Z,61.94
2018-09-15T12:06:54.790Z,61.58
2018-09-15T12:07:54.812Z,60.85
2018-09-15T12:08:54.801Z,59.75
2018-09-15T12:09:54.756Z,60.39
2018-09-15T12:10:54.746Z,59.74
2018-09-15T12:11:54.733Z,59.53
2018-09-15T12:12:54.742Z,60.94
2018-09-15T12:13:54.718Z,61.84
2018-09-15T12:14:54.728Z,60.94
2018-09-15T12:15:54.796Z,58.20
2018-09-15T12:16:54.678Z,59.58
2018-09-15T12:17:56.596Z,59.22
2018-09-15T12:18:54.679Z,59.79
2018-09-15T12:19:54.653Z,61.07
2018-09-15T12:20:54.663Z,56.59
2018-09-15T12:21:54.659Z,55.66
2018-09-15T12:22:54.616Z,55.57
2018-09-15T12:23:54.652Z,54.34
2018-09-15T12:24:54.619Z,57.29
2018-09-15T12:25:54.597Z,58.37
2018-09-15T12:26:54.583Z,59.03
2018-09-15T12:27:54.585Z,59.92
2018-09-15T12:28:54.569Z,61.55
2018-09-15T12:29:54.558Z,62.46
2018-09-15T12:30:54.547Z,63.59
2018-09-15T12:31:54.516Z,62.12
2018-09-15T12:32:54.512Z,62.18
2018-09-15T12:33:54.500Z,61.27
2018-09-15T12:34:54.491Z,62.41
2018-09-15T12:35:54.519Z,62.68
2018-09-15T12:36:54.469Z,61.17
2018-09-15T12:37:54.458Z,61.85
2018-09-15T12:38:54.448Z,60.33
2018-09-15T12:39:54.438Z,59.50
2018-09-15T12:40:54.460Z,60.88
2018-09-15T12:41:54.412Z,58.97
2018-09-15T12:42:54.400Z,58.84
2018-09-15T12:43:54.391Z,59.22
2018-09-15T12:44:54.404Z,60.02
2018-09-15T12:45:54.381Z,59.89
2018-09-15T12:46:54.382Z,59.59
2018-09-15T12:47:54.350Z,59.69
2018-09-15T12:48:54.334Z,56.68
2018-09-15T12:49:54.343Z,54.68
2018-09-15T12:50:54.315Z,56.48
2018-09-15T12:51:54.363Z,58.09